Αναφορές Αεροδρομίων

 

KSJC - San Jose, California, USA
Distance from station: ΒΑ 14km
Ενημερώθηκε: 19/09/2020 00:53
Μερικώς νεφελώδης
Μερικώς νεφελώδης
 Ανεμος από ΒΔ
Ανεμος: ΒΔ 22 km/h
Θερμοκρασία: 26°C
Σημείο Δρόσου: 13°C
Υγρασία: 45%
Βαρόμετρο: 1014.6 hPa
Clouds: Μερικώς νεφελώδης
Visibility: 16 km
Cloud details: Few Clouds 1067 m
Μερικώς νεφελώδης 2591 m
2020/09/18 21:53 KSJC 182153Z 31012KT 10SM FEW035 SCT085 26/13 A2996 RMK AO2 SLP144 T02560133
KNUQ - Moffett Nas/Mtn, California, USA
Distance from station: Β 14km
Ενημερώθηκε: 18/09/2020 16:55
NOT Current
Συννεφιά
Συννεφιά
 Ανεμος από calm
Ανεμος: Απνοια
Θερμοκρασία: 18°C
Σημείο Δρόσου: 15°C
Υγρασία: 83%
Βαρόμετρο: 1015.9 hPa
Clouds: Συννεφιά
Visibility: 16 km
Cloud details: Συννεφιά 427 m
2020/09/18 13:55 KNUQ 181355Z AUTO 00000KT 10SM OVC014 18/15 A3000 RMK AO2
 
KPAO - Palo Alto, California, USA
Distance from station: ΒΒΔ 23km
Ενημερώθηκε: 18/09/2020 23:47
NOT Current
Αίθριος
Αίθριος
 Ανεμος από Β
Ανεμος: Β 20 km/h
Θερμοκρασία: 22°C
Σημείο Δρόσου: 17°C
Υγρασία: 73%
Βαρόμετρο: 1015.6 hPa
Clouds: Αίθριος
Visibility: 16 km
2020/09/18 20:47 KPAO 182047Z 36011KT 10SM SKC 22/17 A2999
KRHV - San Jose/Reid, California, USA
Distance from station: ΑΒΑ 19km
Ενημερώθηκε: 19/09/2020 00:47
Few Clouds
Few Clouds
 Ανεμος από ΒΒΔ
Ανεμος: ΒΒΔ 17 km/h
Θερμοκρασία: 27°C
Σημείο Δρόσου: 12°C
Υγρασία: 39%
Βαρόμετρο: 1014.6 hPa
Clouds: Few Clouds
Visibility: 16 km
Cloud details: Few Clouds 1067 m
2020/09/18 21:47 KRHV 182147Z 33009KT 10SM FEW035 27/12 A2996
 
KOAK - Oakland, California, USA
Distance from station: ΒΒΔ 50km
Ενημερώθηκε: 19/09/2020 00:53
Few Clouds
Few Clouds
 Ανεμος από Δ
Ανεμος: Δ 22 km/h
Θερμοκρασία: 23°C
Σημείο Δρόσου: 15°C
Υγρασία: 61%
Βαρόμετρο: 1015.2 hPa
Clouds: Few Clouds
Visibility: 16 km
Cloud details: Few Clouds 305 m
Few Clouds 6096 m
2020/09/18 21:53 KOAK 182153Z 28012KT 10SM FEW010 FEW200 23/15 A2998 RMK AO2 SLP153 T02330150
KSQL - San Carlos Airpo, California, USA
Distance from station: ΒΔ 34km
Ενημερώθηκε: 19/09/2020 00:55
Few Clouds
Few Clouds
 Ανεμος από ΔΒΔ
Ανεμος: ΔΒΔ 20 km/h
Θερμοκρασία: 25°C
Σημείο Δρόσου: 14°C
Υγρασία: 51%
Βαρόμετρο: 1014.9 hPa
Clouds: Few Clouds
Visibility: 16 km
Cloud details: Few Clouds 6096 m
2020/09/18 21:55 KSQL 182155Z 29011KT 10SM FEW200 25/14 A2997
 
KSFO - San Francisco, California, USA
Distance from station: ΒΔ 49km
Ενημερώθηκε: 19/09/2020 00:56
Few Clouds
Few Clouds
 Ανεμος από Δ
Ανεμος: Δ 31 km/h
Θερμοκρασία: 23°C
Σημείο Δρόσου: 14°C
Υγρασία: 57%
Βαρόμετρο: 1015.2 hPa
Clouds: Few Clouds
Visibility: 16 km
Cloud details: Few Clouds 183 m
2020/09/18 21:56 KSFO 182156Z 28017KT 10SM FEW006 23/14 A2998 RMK AO2 SLP151 T02330144
KE16 - San Martin, California, USA
Distance from station: ΑΝΑ 43km
Ενημερώθηκε: 19/09/2020 01:10
Αίθριος
Αίθριος
 Ανεμος από ΒΔ
Ανεμος: ΒΔ 20 km/h, Ριπή: 33 km/h
Θερμοκρασία: 28°C
Σημείο Δρόσου: 9°C
Υγρασία: 30%
Βαρόμετρο: 1014.2 hPa
Clouds: Αίθριος
Visibility: 16 km
2020/09/18 22:10 KE16 182210Z AUTO 32011G18KT 10SM CLR 28/09 A2995 RMK AO2
 
KWVI - Watsonville, California, USA
Distance from station: ΝΝΑ 44km
Ενημερώθηκε: 19/09/2020 00:53
Αίθριος
Αίθριος
 Ανεμος από ΔΝΔ
Ανεμος: ΔΝΔ 13 km/h
Θερμοκρασία: 26°C
Σημείο Δρόσου: 14°C
Υγρασία: 48%
Βαρόμετρο: 1014.2 hPa
Clouds: Αίθριος
Visibility: 16 km
2020/09/18 21:53 KWVI 182153Z AUTO 25007KT 220V290 10SM CLR 26/14 A2995 RMK AO2 SLP142 T02560144
KHAF - Half Moon Bay, California, USA
Distance from station: ΔΒΔ 50km
Ενημερώθηκε: 19/09/2020 01:15
Σχεδόν νεφελώδης
Σχεδόν νεφελώδης
 Ανεμος από ΒΔ
Ανεμος: ΒΔ 15 km/h
Θερμοκρασία: 18°C
Σημείο Δρόσου: 15°C
Υγρασία: 83%
Βαρόμετρο: 1016.3 hPa
Clouds: Σχεδόν νεφελώδης
Visibility: 16 km
Cloud details: Σχεδόν νεφελώδης 244 m
2020/09/18 22:15 KHAF 182215Z AUTO 31008KT 10SM BKN008 18/15 A3001 RMK AO2
 
KHWD - Hayward, California, USA
Distance from station: Β 44km
Ενημερώθηκε: 19/09/2020 00:54
Αίθριος
Αίθριος
 Ανεμος από ΔΒΔ
Ανεμος: ΔΒΔ 20 km/h
Θερμοκρασία: 23°C
Σημείο Δρόσου: 15°C
Υγρασία: 61%
Βαρόμετρο: 1015.2 hPa
Clouds: Αίθριος
Visibility: 16 km
2020/09/18 21:54 KHWD 182154Z 29011KT 10SM CLR 23/15 A2998 RMK AO2 SLP159 T02330150
KLVK - Livermore, California, USA
Distance from station: ΒΒΑ 51km
Ενημερώθηκε: 19/09/2020 00:53
Αίθριος
Αίθριος
 Ανεμος από Δ
Ανεμος: Δ 26 km/h
Θερμοκρασία: 26°C
Σημείο Δρόσου: 10°C
Υγρασία: 37%
Βαρόμετρο: 1014.2 hPa
Clouds: Αίθριος
Visibility: 16 km
2020/09/18 21:53 KLVK 182153Z 28014KT 10SM CLR 26/10 A2995 RMK AO2 SLP137 T02610100